Bishop, Texas
Current Conditions -  °F | °C
As of 11:10 AM on Thursday 18 Dec 2014 (Local Time) from KNQI Reporting Station
Haze Haze  
Wind Chill: 25°   Ceiling: 2200
Heat Index: 26°   Visibility: 6mi
Dew Point: 21°   Wind: 14mph
Humidity: 79%   Direction: 180°S
Pressure: 30.06"   Gusts: NA
Location:  27.59°N, 97.8°W
Report Text: KNQI 181710Z 18012KT 6SM HZ SCT016 BKN022 OVC034 25/21 A3006 RMK AO2 T02500211
Loading
Personal Weather Stations






























Interactive Weather Map New forecast layout! Learn more

10-Day Weather Forecast

Advertisements
Track Severe Weather on mobile